Time;durP1;ratioP1;P1;durP2;ratioP2;P2;SDS_P1;SDS_P2;PMS_P1;PMS_P2;Temp;Humidity;BMP_temperature;BMP_pressure;BME280_temperature;BME280_humidity;BME280_pressure;Samples;Min_cycle;Max_cycle;Signal;HPM_P1;HPM_P2
2022/01/09 00:01:52;;;;;;;0.30;0.30;;;7.70;61.60;;;;;;4982801;28;20042;-57
2022/01/09 00:04:18;;;;;;;0.50;0.30;;;7.70;61.60;;;;;;4961841;28;20062;-58
2022/01/09 00:06:44;;;;;;;0.28;0.25;;;7.70;61.60;;;;;;4986417;28;20034;-56
2022/01/09 00:09:11;;;;;;;0.43;0.30;;;7.70;61.70;;;;;;4979917;28;20026;-58
2022/01/09 00:11:37;;;;;;;0.65;0.30;;;7.70;61.80;;;;;;4980329;28;20487;-56
2022/01/09 00:14:03;;;;;;;0.50;0.30;;;7.70;61.80;;;;;;4985216;28;20033;-58
2022/01/09 00:16:30;;;;;;;0.38;0.30;;;7.70;61.90;;;;;;4984266;28;20035;-56
2022/01/09 00:18:57;;;;;;;0.38;0.15;;;7.70;61.90;;;;;;4961499;28;20042;-56
2022/01/09 00:21:23;;;;;;;0.50;0.20;;;7.80;62.00;;;;;;4968083;28;20047;-58
2022/01/09 00:23:49;;;;;;;1.02;0.25;;;7.70;61.90;;;;;;4984215;28;20022;-58
2022/01/09 00:26:15;;;;;;;0.57;0.30;;;7.70;62.00;;;;;;4980560;28;20030;-56
2022/01/09 00:28:41;;;;;;;0.40;0.20;;;7.80;62.10;;;;;;4979508;28;20030;-56
2022/01/09 00:31:08;;;;;;;0.73;0.22;;;7.70;62.10;;;;;;4972416;28;20034;-57
2022/01/09 00:33:34;;;;;;;0.45;0.30;;;7.80;62.30;;;;;;4984512;28;20027;-58
2022/01/09 00:36:00;;;;;;;0.30;0.30;;;7.80;62.30;;;;;;4982073;28;20386;-57
2022/01/09 00:38:26;;;;;;;3.45;0.35;;;7.80;62.40;;;;;;4981619;28;20058;-58
2022/01/09 00:40:52;;;;;;;1.33;0.20;;;7.80;62.50;;;;;;4984242;28;20034;-55
2022/01/09 00:43:19;;;;;;;0.10;0.10;;;7.80;62.50;;;;;;4985400;28;20026;-58
2022/01/09 00:45:45;;;;;;;0.40;0.15;;;7.80;62.60;;;;;;4979059;28;20034;-56
2022/01/09 00:48:12;;;;;;;0.88;0.20;;;7.80;62.50;;;;;;4960847;28;20490;-59
2022/01/09 00:50:40;;;;;;;1.83;0.10;;;7.80;62.60;;;;;;4980083;28;20046;-55
2022/01/09 00:53:07;;;;;;;0.30;0.28;;;7.80;62.60;;;;;;4978320;28;20026;-57
2022/01/09 00:55:33;;;;;;;0.20;0.20;;;7.80;62.60;;;;;;4980310;28;20037;-59
2022/01/09 00:57:59;;;;;;;1.80;0.10;;;7.80;62.60;;;;;;4973015;28;20034;-58
2022/01/09 01:00:26;;;;;;;0.28;0.10;;;7.80;62.70;;;;;;4977901;28;20022;-57
2022/01/09 01:02:52;;;;;;;1.33;0.57;;;7.80;62.70;;;;;;4979767;28;20037;-56
2022/01/09 01:05:19;;;;;;;0.35;0.20;;;7.80;62.70;;;;;;4980313;28;20034;-54
2022/01/09 01:07:45;;;;;;;0.32;0.32;;;7.80;62.80;;;;;;4978838;28;20050;-54
2022/01/09 01:10:13;;;;;;;0.30;0.20;;;7.80;62.80;;;;;;4979683;28;20394;-55
2022/01/09 01:12:39;;;;;;;0.55;0.30;;;7.80;62.80;;;;;;4981550;28;20042;-55
2022/01/09 01:15:07;;;;;;;0.45;0.15;;;7.80;62.90;;;;;;4963093;28;20034;-56
2022/01/09 01:17:33;;;;;;;0.50;0.20;;;7.80;63.00;;;;;;4976073;28;20654;-58
2022/01/09 01:19:59;;;;;;;0.40;0.30;;;7.80;63.10;;;;;;4979325;28;20018;-58
2022/01/09 01:22:27;;;;;;;0.60;0.30;;;7.80;63.10;;;;;;4981361;28;20033;-57
2022/01/09 01:24:53;;;;;;;0.25;0.10;;;7.80;63.10;;;;;;4980262;28;20038;-59
2022/01/09 01:27:19;;;;;;;1.88;0.20;;;7.80;63.10;;;;;;4955915;28;20811;-57
2022/01/09 01:29:45;;;;;;;0.60;0.28;;;7.80;63.20;;;;;;4978211;28;20049;-58
2022/01/09 01:32:12;;;;;;;0.25;0.08;;;7.80;63.20;;;;;;4974312;28;20034;-58
2022/01/09 01:34:38;;;;;;;0.25;0.20;;;7.80;63.20;;;;;;4980575;28;20041;-55
2022/01/09 01:37:04;;;;;;;0.20;0.10;;;7.80;63.20;;;;;;4980544;28;20054;-56
2022/01/09 01:39:30;;;;;;;0.68;0.25;;;7.80;63.20;;;;;;4978966;28;20394;-58
2022/01/09 01:41:57;;;;;;;0.10;0.10;;;7.80;63.30;;;;;;4974198;28;20038;-56
2022/01/09 01:44:23;;;;;;;0.13;0.10;;;7.80;63.40;;;;;;4980878;28;20045;-56
2022/01/09 01:46:49;;;;;;;0.65;0.30;;;7.80;63.50;;;;;;4976825;28;20505;-57
2022/01/09 01:49:16;;;;;;;0.43;0.10;;;7.80;63.70;;;;;;4977128;28;20039;-55
2022/01/09 01:51:44;;;;;;;1.85;0.10;;;7.80;63.70;;;;;;4982335;28;20034;-57
2022/01/09 01:54:14;;;;;;;5.38;0.10;;;7.90;63.90;;;;;;4979958;28;20367;-59
2022/01/09 01:56:40;;;;;;;1.20;0.10;;;7.90;63.80;;;;;;4980902;28;20026;-58
2022/01/09 01:59:06;;;;;;;1.55;0.10;;;8.00;63.60;;;;;;4971478;28;20474;-55
2022/01/09 02:01:36;;;;;;;1.40;0.30;;;8.00;63.50;;;;;;4943887;28;20458;-54
2022/01/09 02:04:03;;;;;;;0.60;0.15;;;8.10;63.30;;;;;;4979803;28;20034;-56
2022/01/09 02:06:30;;;;;;;0.22;0.15;;;8.10;63.20;;;;;;4981528;28;20038;-55
2022/01/09 02:08:56;;;;;;;0.52;0.25;;;8.10;63.00;;;;;;4973095;28;20027;-55
2022/01/09 02:11:23;;;;;;;0.30;0.10;;;8.10;62.90;;;;;;4977460;28;20030;-57
2022/01/09 02:13:49;;;;;;;1.23;0.20;;;8.10;62.80;;;;;;4980804;28;20034;-58
2022/01/09 02:16:19;;;;;;;1.08;0.20;;;8.20;62.80;;;;;;4979072;28;20034;-56
2022/01/09 02:18:46;;;;;;;0.98;0.10;;;8.20;62.80;;;;;;4975954;28;20030;-56
2022/01/09 02:21:16;;;;;;;1.50;0.52;;;8.20;62.70;;;;;;4974530;28;20029;-56
2022/01/09 02:23:46;;;;;;;1.92;0.20;;;8.20;62.70;;;;;;4980439;28;20030;-53
2022/01/09 02:26:18;;;;;;;0.43;0.20;;;8.20;62.70;;;;;;4977661;28;20034;-59
2022/01/09 02:28:45;;;;;;;0.75;0.30;;;8.20;62.80;;;;;;4973230;28;20041;-56
2022/01/09 02:31:12;;;;;;;0.52;0.20;;;8.20;62.80;;;;;;4976296;28;20049;-59
2022/01/09 02:33:38;;;;;;;1.17;0.20;;;8.20;62.90;;;;;;4980899;28;20027;-59
2022/01/09 02:36:04;;;;;;;0.30;0.10;;;8.20;63.00;;;;;;4962656;28;20043;-57
2022/01/09 02:38:31;;;;;;;0.52;0.38;;;8.20;63.20;;;;;;4965843;28;20042;-57
2022/01/09 02:40:57;;;;;;;0.10;0.10;;;8.10;63.20;;;;;;4977173;28;20029;-57
2022/01/09 02:43:24;;;;;;;0.20;0.10;;;8.10;63.20;;;;;;4978589;28;20027;-57
2022/01/09 02:46:00;;;;;;;1.15;0.28;;;8.00;63.10;;;;;;4977051;28;20038;-59
2022/01/09 02:48:31;;;;;;;1.02;0.40;;;8.00;63.10;;;;;;4970481;28;20487;-56
2022/01/09 02:51:04;;;;;;;1.38;0.30;;;8.00;63.10;;;;;;4972598;28;20635;-59
2022/01/09 02:53:34;;;;;;;0.55;0.20;;;7.90;63.10;;;;;;4980733;28;20046;-57
2022/01/09 02:56:01;;;;;;;2.13;0.40;;;7.90;63.20;;;;;;4977085;28;20041;-57
2022/01/09 02:58:27;;;;;;;1.40;0.13;;;7.80;63.30;;;;;;4977320;28;20026;-57
2022/01/09 03:00:54;;;;;;;1.20;0.28;;;7.80;63.50;;;;;;4974610;28;20037;-57
2022/01/09 03:03:20;;;;;;;0.65;0.22;;;7.80;63.70;;;;;;4979646;28;20018;-58
2022/01/09 03:05:46;;;;;;;5.53;0.40;;;7.80;63.90;;;;;;4976182;28;20376;-59
2022/01/09 03:08:13;;;;;;;2.72;0.52;;;7.70;64.00;;;;;;4973294;28;20808;-58
2022/01/09 03:10:39;;;;;;;2.83;0.35;;;7.70;64.10;;;;;;4975859;28;20044;-55
2022/01/09 03:13:06;;;;;;;0.93;0.38;;;7.60;64.10;;;;;;4976471;28;20033;-58
2022/01/09 03:15:33;;;;;;;2.95;0.55;;;7.50;63.90;;;;;;4978303;28;20023;-58
2022/01/09 03:18:00;;;;;;;1.45;0.50;;;7.50;64.10;;;;;;4974034;28;20034;-56
2022/01/09 03:20:28;;;;;;;2.78;0.73;;;7.40;64.40;;;;;;4963032;28;20026;-58
2022/01/09 03:22:55;;;;;;;1.25;0.40;;;7.40;64.70;;;;;;4978769;28;20023;-59
2022/01/09 03:25:25;;;;;;;1.92;0.60;;;7.30;65.60;;;;;;4978117;28;20031;-60
2022/01/09 03:27:53;;;;;;;2.42;0.68;;;7.20;66.00;;;;;;4976668;28;20037;-60
2022/01/09 03:30:21;;;;;;;2.60;0.70;;;7.10;66.20;;;;;;4975104;28;20038;-58
2022/01/09 03:32:50;;;;;;;4.32;0.88;;;7.00;66.90;;;;;;4979108;28;20038;-57
2022/01/09 03:35:19;;;;;;;3.25;0.63;;;7.00;67.70;;;;;;4979888;28;20095;-58
2022/01/09 03:37:46;;;;;;;11.05;1.15;;;6.90;68.10;;;;;;4976986;28;20046;-59
2022/01/09 03:40:18;;;;;;;7.57;0.95;;;6.90;68.70;;;;;;4978056;28;20026;-59
2022/01/09 03:42:46;;;;;;;2.88;0.98;;;6.90;69.20;;;;;;4975717;28;20030;-60
2022/01/09 03:45:13;;;;;;;3.15;0.80;;;6.90;69.60;;;;;;4973610;28;20037;-59
2022/01/09 03:47:39;;;;;;;5.20;1.23;;;6.90;69.80;;;;;;4971650;28;20042;-58
2022/01/09 03:50:08;;;;;;;3.25;1.35;;;6.90;70.00;;;;;;4976962;28;20041;-58
2022/01/09 03:52:37;;;;;;;6.28;1.17;;;7.00;70.20;;;;;;4972307;28;20479;-59
2022/01/09 03:55:05;;;;;;;8.90;1.38;;;7.10;70.40;;;;;;4978238;28;20486;-58
2022/01/09 03:57:32;;;;;;;6.75;1.35;;;7.10;70.30;;;;;;4957613;28;20050;-59
2022/01/09 03:59:58;;;;;;;8.68;1.50;;;7.10;70.10;;;;;;4974992;28;20054;-58
2022/01/09 04:02:24;;;;;;;7.65;1.48;;;7.10;70.10;;;;;;4953262;28;20490;-59
2022/01/09 04:04:51;;;;;;;5.72;1.45;;;7.10;70.30;;;;;;4971066;28;20046;-59
2022/01/09 04:07:17;;;;;;;6.50;1.65;;;7.10;70.40;;;;;;4972823;28;20038;-55
2022/01/09 04:09:45;;;;;;;6.20;1.67;;;7.10;70.50;;;;;;4963460;28;20436;-58
2022/01/09 04:12:17;;;;;;;13.98;2.20;;;7.10;70.60;;;;;;4976338;28;20030;-57
2022/01/09 04:14:48;;;;;;;10.48;1.90;;;7.10;70.70;;;;;;4973755;28;20023;-59
2022/01/09 04:17:25;;;;;;;15.68;2.42;;;7.10;70.80;;;;;;4971023;28;20035;-57
2022/01/09 04:19:51;;;;;;;12.85;2.33;;;7.10;70.90;;;;;;4971478;28;20038;-58
2022/01/09 04:22:17;;;;;;;20.50;3.92;;;7.10;70.90;;;;;;4976393;28;20057;-55
2022/01/09 04:24:43;;;;;;;13.57;2.80;;;7.10;71.10;;;;;;4971088;28;20030;-57
2022/01/09 04:27:09;;;;;;;18.55;3.55;;;7.20;71.30;;;;;;4979324;28;20042;-54
2022/01/09 04:29:36;;;;;;;19.17;3.47;;;7.20;71.40;;;;;;4973519;28;20365;-51
2022/01/09 04:32:02;;;;;;;17.73;3.70;;;7.20;71.50;;;;;;4974285;28;20046;-58
2022/01/09 04:34:29;;;;;;;13.15;2.63;;;7.30;71.60;;;;;;4983718;28;20022;-56
2022/01/09 04:36:58;;;;;;;13.80;2.70;;;7.30;71.60;;;;;;4983329;28;20069;-53
2022/01/09 04:39:25;;;;;;;14.13;2.88;;;7.30;71.70;;;;;;4982674;28;20030;-54
2022/01/09 04:41:52;;;;;;;16.88;3.15;;;7.30;71.60;;;;;;4979042;28;20041;-55
2022/01/09 04:44:18;;;;;;;18.77;2.92;;;7.40;71.50;;;;;;4981143;28;20487;-54
2022/01/09 04:46:51;;;;;;;13.38;2.70;;;7.40;71.60;;;;;;4961057;28;20034;-57
2022/01/09 04:49:22;;;;;;;20.08;2.90;;;7.40;71.70;;;;;;4969099;28;20043;-55
2022/01/09 04:51:48;;;;;;;20.25;3.63;;;7.40;71.60;;;;;;4980441;28;20038;-55
2022/01/09 04:54:14;;;;;;;16.45;3.20;;;7.40;71.60;;;;;;4976890;28;20046;-57
2022/01/09 04:56:41;;;;;;;26.48;5.10;;;7.50;71.70;;;;;;4983215;28;20038;-54
2022/01/09 04:59:07;;;;;;;31.52;4.43;;;7.50;71.80;;;;;;4982640;28;20030;-56
2022/01/09 05:01:33;;;;;;;22.33;4.35;;;7.50;71.70;;;;;;4979479;28;20102;-53
2022/01/09 05:03:59;;;;;;;27.20;4.72;;;7.50;71.80;;;;;;4974901;28;20046;-54
2022/01/09 05:06:26;;;;;;;34.47;4.85;;;7.60;71.80;;;;;;4958125;28;20591;-52
2022/01/09 05:08:52;;;;;;;41.75;5.75;;;7.60;71.80;;;;;;4976001;28;20061;-58
2022/01/09 05:11:18;;;;;;;38.88;5.78;;;7.60;71.80;;;;;;4983019;28;20030;-53
2022/01/09 05:13:44;;;;;;;40.95;4.93;;;7.60;71.70;;;;;;4982580;28;20018;-56
2022/01/09 05:16:10;;;;;;;43.08;5.68;;;7.60;71.50;;;;;;4968291;28;20038;-58
2022/01/09 05:18:50;;;;;;;34.20;4.60;;;7.60;71.40;;;;;;4969695;28;20299;-56
2022/01/09 05:21:17;;;;;;;31.40;4.72;;;7.60;71.30;;;;;;4980429;28;20023;-56
2022/01/09 05:23:43;;;;;;;29.67;4.47;;;7.60;71.10;;;;;;4979460;28;20042;-53
2022/01/09 05:26:10;;;;;;;30.05;4.47;;;7.70;71.20;;;;;;4981910;28;20049;-55
2022/01/09 05:28:36;;;;;;;26.90;5.15;;;7.70;71.10;;;;;;4976966;28;20512;-55
2022/01/09 05:31:02;;;;;;;32.83;5.40;;;7.70;71.00;;;;;;4977927;28;20107;-54
2022/01/09 05:33:28;;;;;;;27.45;5.40;;;7.70;70.90;;;;;;4982390;28;20034;-55
2022/01/09 05:35:55;;;;;;;33.38;4.85;;;7.70;70.90;;;;;;4981992;28;20030;-52
2022/01/09 05:38:21;;;;;;;41.30;5.10;;;7.70;70.70;;;;;;4977313;28;20077;-54
2022/01/09 05:40:47;;;;;;;33.53;4.57;;;7.70;70.60;;;;;;4980170;28;20019;-56
2022/01/09 05:43:14;;;;;;;33.15;4.05;;;7.70;70.40;;;;;;4968335;28;20041;-56
2022/01/09 05:45:41;;;;;;;28.20;5.22;;;7.70;70.10;;;;;;4980671;28;20022;-56
2022/01/09 05:48:07;;;;;;;26.35;4.90;;;7.70;70.10;;;;;;4967527;28;20034;-56
2022/01/09 05:50:34;;;;;;;28.63;4.63;;;7.70;69.70;;;;;;4974219;28;20031;-57
2022/01/09 05:53:01;;;;;;;28.17;4.25;;;7.70;69.70;;;;;;4972331;28;20018;-55
2022/01/09 05:55:29;;;;;;;39.15;5.13;;;7.70;69.40;;;;;;4979560;28;20042;-53
2022/01/09 05:57:56;;;;;;;23.70;4.35;;;7.70;69.30;;;;;;4976501;28;20038;-55
2022/01/09 06:00:23;;;;;;;28.77;4.43;;;7.80;70.10;;;;;;4972310;28;20514;-55
2022/01/09 06:02:49;;;;;;;32.78;4.13;;;7.70;69.30;;;;;;4976946;28;20026;-50
2022/01/09 06:05:16;;;;;;;26.45;4.15;;;7.80;69.30;;;;;;4974734;28;20018;-53
2022/01/09 06:07:43;;;;;;;26.10;4.28;;;7.80;69.10;;;;;;4966541;28;20031;-55
2022/01/09 06:10:10;;;;;;;27.63;5.07;;;7.80;68.80;;;;;;4977596;28;20454;-53
2022/01/09 06:12:36;;;;;;;19.80;3.90;;;7.80;68.70;;;;;;4974480;28;20026;-54
2022/01/09 06:15:04;;;;;;;19.88;3.72;;;7.80;68.60;;;;;;4976285;28;20026;-52
2022/01/09 06:17:38;;;;;;;30.60;5.47;;;7.80;68.50;;;;;;4964317;28;20042;-51
2022/01/09 06:20:06;;;;;;;30.30;4.25;;;7.80;68.20;;;;;;4977511;28;20506;-56
2022/01/09 06:22:32;;;;;;;23.00;3.65;;;7.80;67.90;;;;;;4961805;28;20042;-55
2022/01/09 06:24:59;;;;;;;32.47;3.97;;;7.80;68.10;;;;;;4981718;28;20490;-57
2022/01/09 06:27:25;;;;;;;21.95;3.70;;;7.80;67.80;;;;;;4974033;28;20538;-55
2022/01/09 06:29:52;;;;;;;25.50;4.60;;;7.80;67.40;;;;;;4980147;28;20026;-55
2022/01/09 06:32:18;;;;;;;37.35;4.45;;;7.80;67.40;;;;;;4974873;28;20021;-58
2022/01/09 06:34:44;;;;;;;20.67;3.60;;;7.90;67.60;;;;;;4979966;28;20026;-57
2022/01/09 06:37:12;;;;;;;26.85;3.92;;;7.90;67.40;;;;;;4979334;28;20054;-55
2022/01/09 06:39:42;;;;;;;27.40;3.63;;;7.90;67.50;;;;;;4979284;28;20023;-54
2022/01/09 06:42:08;;;;;;;26.48;3.85;;;7.90;67.20;;;;;;4973430;28;20037;-55
2022/01/09 06:44:34;;;;;;;27.90;3.83;;;7.90;67.00;;;;;;4960102;28;20439;-54
2022/01/09 06:47:01;;;;;;;25.10;3.85;;;7.90;66.70;;;;;;4973106;28;20490;-53
2022/01/09 06:49:27;;;;;;;18.05;3.40;;;8.00;66.60;;;;;;4977950;28;20029;-55
2022/01/09 06:51:53;;;;;;;21.20;3.63;;;8.00;66.60;;;;;;4976938;28;20026;-54
2022/01/09 06:54:19;;;;;;;34.58;4.03;;;8.00;66.60;;;;;;4979082;28;20050;-55
2022/01/09 06:56:46;;;;;;;27.65;3.47;;;8.00;66.30;;;;;;4979241;28;20034;-55
2022/01/09 06:59:12;;;;;;;27.98;3.85;;;8.00;66.20;;;;;;4976392;28;21034;-54
2022/01/09 07:01:38;;;;;;;20.45;3.75;;;8.00;65.90;;;;;;4971717;28;20037;-55
2022/01/09 07:04:04;;;;;;;21.17;3.97;;;8.10;65.70;;;;;;4980364;28;20037;-56
2022/01/09 07:06:31;;;;;;;23.27;3.47;;;8.00;65.90;;;;;;4979143;28;20042;-54
2022/01/09 07:08:58;;;;;;;20.27;4.25;;;8.00;64.80;;;;;;4976475;28;20030;-54
2022/01/09 07:11:24;;;;;;;15.52;3.30;;;8.10;64.90;;;;;;4977122;28;20026;-55
2022/01/09 07:13:50;;;;;;;22.13;4.32;;;8.10;64.80;;;;;;4966611;28;20030;-55
2022/01/09 07:16:16;;;;;;;25.27;3.33;;;8.10;64.60;;;;;;4968882;28;20034;-55
2022/01/09 07:18:42;;;;;;;28.25;4.43;;;8.10;64.70;;;;;;4964604;28;20407;-53
2022/01/09 07:21:09;;;;;;;31.15;3.50;;;8.10;65.30;;;;;;4976451;28;20035;-55
2022/01/09 07:23:35;;;;;;;21.10;3.65;;;8.10;64.60;;;;;;4959759;28;20061;-55
2022/01/09 07:26:01;;;;;;;17.63;3.05;;;8.10;64.60;;;;;;4966092;28;20029;-55
2022/01/09 07:28:27;;;;;;;27.95;3.83;;;8.10;64.50;;;;;;4967594;28;20026;-53
2022/01/09 07:30:53;;;;;;;21.17;3.65;;;8.10;64.30;;;;;;4974691;28;20034;-55
2022/01/09 07:33:19;;;;;;;28.98;3.42;;;8.10;64.40;;;;;;4975881;28;20475;-55
2022/01/09 07:35:46;;;;;;;18.70;2.90;;;8.10;64.40;;;;;;4974263;28;20046;-55
2022/01/09 07:38:12;;;;;;;24.80;3.47;;;8.10;63.80;;;;;;4974540;28;20046;-54
2022/01/09 07:40:39;;;;;;;19.45;3.83;;;8.10;63.90;;;;;;4970798;28;20556;-54
2022/01/09 07:43:05;;;;;;;19.90;3.08;;;8.10;63.60;;;;;;4974543;28;20038;-54
2022/01/09 07:45:32;;;;;;;20.20;3.05;;;8.10;63.50;;;;;;4977617;28;20046;-53
2022/01/09 07:48:02;;;;;;;13.93;2.97;;;8.10;64.00;;;;;;4961576;28;20386;-51
2022/01/09 07:50:29;;;;;;;16.08;2.63;;;8.10;63.10;;;;;;4972344;28;20400;-55
2022/01/09 07:52:56;;;;;;;15.50;2.65;;;8.10;62.90;;;;;;4974978;28;20034;-54
2022/01/09 07:55:22;;;;;;;17.77;3.05;;;8.10;63.00;;;;;;4964236;28;20026;-54
2022/01/09 07:57:49;;;;;;;21.42;3.28;;;8.10;63.10;;;;;;4964710;28;20487;-55
2022/01/09 08:00:17;;;;;;;17.52;3.03;;;8.10;63.20;;;;;;4966042;28;20495;-54
2022/01/09 08:02:43;;;;;;;15.55;2.90;;;8.00;62.90;;;;;;4967141;28;20030;-51
2022/01/09 08:05:11;;;;;;;14.60;2.67;;;8.00;62.90;;;;;;4942981;28;20426;-54
2022/01/09 08:07:38;;;;;;;18.58;3.53;;;8.00;63.10;;;;;;4967049;28;20388;-55
2022/01/09 08:10:06;;;;;;;18.38;2.60;;;8.10;62.90;;;;;;4974884;28;20402;-55
2022/01/09 08:12:32;;;;;;;20.50;3.38;;;8.10;63.00;;;;;;4979643;28;20049;-54
2022/01/09 08:14:58;;;;;;;9.77;2.40;;;8.00;62.60;;;;;;4979331;28;20598;-49
2022/01/09 08:17:25;;;;;;;18.02;2.97;;;8.00;62.30;;;;;;4977660;28;20022;-55
2022/01/09 08:19:51;;;;;;;11.02;2.85;;;8.00;62.30;;;;;;4980080;28;20018;-54
2022/01/09 08:22:17;;;;;;;24.83;2.83;;;8.00;62.70;;;;;;4982046;28;20026;-54
2022/01/09 08:24:45;;;;;;;12.30;2.33;;;8.00;62.60;;;;;;4980123;28;20984;-56
2022/01/09 08:27:11;;;;;;;14.90;2.63;;;8.00;62.50;;;;;;4980924;28;20615;-54
2022/01/09 08:29:37;;;;;;;10.93;3.10;;;8.00;62.50;;;;;;4973726;28;20045;-54
2022/01/09 08:32:06;;;;;;;15.63;3.05;;;8.00;62.40;;;;;;4969993;28;20475;-57
2022/01/09 08:34:33;;;;;;;16.45;2.72;;;8.00;62.20;;;;;;4979770;28;20033;-55
2022/01/09 08:37:00;;;;;;;20.42;3.38;;;8.00;62.30;;;;;;4965148;28;20049;-56
2022/01/09 08:39:26;;;;;;;14.10;2.55;;;8.00;62.50;;;;;;4965092;28;20022;-56
2022/01/09 08:41:52;;;;;;;13.95;3.33;;;8.00;62.60;;;;;;4971246;28;20026;-55
2022/01/09 08:44:18;;;;;;;10.73;2.63;;;8.00;62.20;;;;;;4977522;28;20385;-54
2022/01/09 08:46:45;;;;;;;16.42;3.20;;;8.00;62.50;;;;;;4976481;28;20023;-53
2022/01/09 08:49:11;;;;;;;16.30;2.28;;;8.00;62.30;;;;;;4971716;28;20042;-55
2022/01/09 08:51:37;;;;;;;20.15;2.97;;;8.00;62.60;;;;;;4971266;28;20030;-52
2022/01/09 08:54:03;;;;;;;16.25;2.80;;;8.00;62.00;;;;;;4974764;28;20395;-54
2022/01/09 08:56:29;;;;;;;13.32;2.72;;;8.00;62.00;;;;;;4950617;28;20413;-56
2022/01/09 08:58:57;;;;;;;15.23;2.88;;;8.00;61.40;;;;;;4973668;28;20900;-55
2022/01/09 09:01:23;;;;;;;11.00;2.55;;;8.00;61.60;;;;;;4979994;28;20035;-53
2022/01/09 09:03:50;;;;;;;14.75;2.53;;;8.00;61.60;;;;;;4964564;28;20038;-53
2022/01/09 09:06:17;;;;;;;14.93;3.13;;;8.00;61.80;;;;;;4982520;28;20310;-55
2022/01/09 09:08:44;;;;;;;13.90;2.42;;;8.10;61.90;;;;;;4979282;28;20030;-53
2022/01/09 09:11:12;;;;;;;16.05;3.10;;;8.10;62.40;;;;;;4982103;28;20494;-56
2022/01/09 09:13:39;;;;;;;11.27;2.00;;;8.10;61.80;;;;;;4977990;28;20031;-55
2022/01/09 09:16:06;;;;;;;12.90;2.28;;;8.10;61.60;;;;;;4981205;28;20034;-53
2022/01/09 09:18:33;;;;;;;14.98;2.65;;;8.10;61.60;;;;;;4979090;28;20053;-54
2022/01/09 09:20:59;;;;;;;13.18;2.75;;;8.20;61.60;;;;;;4966075;28;20570;-53
2022/01/09 09:23:25;;;;;;;14.07;2.58;;;8.20;61.50;;;;;;4980765;28;20497;-53
2022/01/09 09:25:52;;;;;;;14.85;2.60;;;8.20;61.10;;;;;;4979786;28;20042;-56
2022/01/09 09:28:18;;;;;;;15.95;2.35;;;8.20;60.50;;;;;;4979854;28;20628;-55
2022/01/09 09:30:44;;;;;;;14.20;2.95;;;8.20;60.80;;;;;;4981756;28;20490;-56
2022/01/09 09:33:10;;;;;;;13.82;2.60;;;8.20;60.50;;;;;;4979870;28;20220;-54
2022/01/09 09:35:37;;;;;;;14.48;3.05;;;8.30;60.30;;;;;;4982277;28;20509;-57
2022/01/09 09:38:04;;;;;;;18.88;3.08;;;8.30;60.60;;;;;;4977936;28;20050;-52
2022/01/09 09:40:31;;;;;;;15.23;2.63;;;8.30;60.40;;;;;;4981996;28;20518;-55
2022/01/09 09:42:58;;;;;;;15.98;2.45;;;8.30;60.00;;;;;;4950338;28;20046;-55
2022/01/09 09:45:25;;;;;;;20.27;2.92;;;8.30;60.00;;;;;;4982664;28;20630;-55
2022/01/09 09:47:52;;;;;;;12.20;2.80;;;8.30;59.80;;;;;;4973463;28;20026;-55
2022/01/09 09:50:20;;;;;;;12.75;2.15;;;8.30;59.70;;;;;;4978887;28;20034;-58
2022/01/09 09:52:48;;;;;;;11.23;2.60;;;8.30;59.60;;;;;;4978403;28;20022;-55
2022/01/09 09:55:16;;;;;;;14.98;2.45;;;8.30;59.70;;;;;;4963403;28;20398;-56
2022/01/09 09:57:43;;;;;;;15.70;2.75;;;8.30;59.70;;;;;;4976914;28;20023;-55
2022/01/09 10:00:12;;;;;;;17.08;2.63;;;8.30;59.60;;;;;;4974557;28;20030;-55
2022/01/09 10:02:47;;;;;;;14.48;2.22;;;8.40;59.60;;;;;;4980443;28;20038;-57
2022/01/09 10:05:21;;;;;;;22.00;3.67;;;8.40;59.50;;;;;;4965075;28;20038;-56
2022/01/09 10:07:48;;;;;;;15.45;2.33;;;8.40;59.40;;;;;;4960616;28;20965;-53
2022/01/09 10:10:17;;;;;;;11.48;2.72;;;8.40;59.50;;;;;;4964128;28;20486;-56
2022/01/09 10:12:45;;;;;;;13.68;2.67;;;8.40;59.50;;;;;;4978835;28;20375;-53
2022/01/09 10:15:18;;;;;;;13.88;2.65;;;8.40;59.50;;;;;;4950635;28;20034;-57
2022/01/09 10:17:49;;;;;;;11.80;2.67;;;8.40;59.50;;;;;;4976154;28;20026;-53
2022/01/09 10:20:17;;;;;;;12.93;2.20;;;8.50;59.50;;;;;;4964714;28;20035;-55
2022/01/09 10:22:46;;;;;;;18.30;2.65;;;8.50;59.60;;;;;;4981624;28;20030;-55
2022/01/09 10:25:18;;;;;;;16.75;2.58;;;8.50;59.60;;;;;;4980130;28;20435;-53
2022/01/09 10:27:45;;;;;;;15.40;2.40;;;8.50;59.40;;;;;;4976781;28;20042;-55
2022/01/09 10:30:12;;;;;;;14.02;2.88;;;8.50;59.20;;;;;;4981511;28;20038;-55
2022/01/09 10:32:39;;;;;;;13.63;2.70;;;8.50;59.00;;;;;;4959435;28;20399;-53
2022/01/09 10:35:20;;;;;;;13.23;2.05;;;8.60;59.10;;;;;;4981048;28;20103;-56
2022/01/09 10:37:48;;;;;;;10.18;2.28;;;8.60;59.00;;;;;;4975512;28;20050;-54
2022/01/09 10:40:29;;;;;;;16.15;2.28;;;8.60;59.00;;;;;;4980169;28;20022;-57
2022/01/09 10:43:08;;;;;;;13.88;2.67;;;8.60;58.60;;;;;;4980167;28;20046;-56
2022/01/09 10:45:38;;;;;;;11.68;2.25;;;8.60;59.00;;;;;;4980814;28;20053;-53
2022/01/09 10:48:17;;;;;;;13.48;2.28;;;8.60;58.50;;;;;;4976726;28;20359;-54
2022/01/09 10:50:44;;;;;;;12.02;2.35;;;8.60;58.60;;;;;;4981555;28;20494;-55
2022/01/09 10:53:24;;;;;;;13.88;2.58;;;8.60;58.70;;;;;;4976848;28;20419;-53
2022/01/09 10:56:05;;;;;;;11.38;3.05;;;8.60;58.60;;;;;;4981089;28;20034;-57
2022/01/09 10:58:35;;;;;;;7.75;2.25;;;8.60;58.60;;;;;;4977802;28;20047;-55
2022/01/09 11:01:23;;;;;;;19.42;3.15;;;8.60;58.80;;;;;;4980372;28;20050;-55
2022/01/09 11:04:02;;;;;;;14.52;2.58;;;8.60;58.60;;;;;;4975810;28;20042;-58
2022/01/09 11:06:31;;;;;;;12.13;2.22;;;8.60;58.60;;;;;;4972759;28;20031;-54
2022/01/09 11:08:59;;;;;;;13.30;2.42;;;8.60;58.70;;;;;;4966172;28;20045;-56
2022/01/09 11:11:30;;;;;;;9.88;2.70;;;8.70;58.60;;;;;;4970815;28;20053;-54
2022/01/09 11:14:00;;;;;;;12.48;2.42;;;8.70;58.70;;;;;;4970565;28;20042;-56
2022/01/09 11:16:33;;;;;;;8.13;2.22;;;8.70;58.60;;;;;;4969524;28;20122;-54
2022/01/09 11:19:00;;;;;;;8.73;2.25;;;8.70;58.50;;;;;;4965579;28;20026;-57
2022/01/09 11:21:27;;;;;;;8.85;2.22;;;8.80;58.70;;;;;;4973277;28;20049;-52
2022/01/09 11:24:15;;;;;;;8.45;2.58;;;8.70;58.70;;;;;;4957319;28;20466;-53
2022/01/09 11:27:07;;;;;;;10.73;2.53;;;8.70;58.50;;;;;;4971672;28;20027;-56
2022/01/09 11:30:05;;;;;;;12.02;2.83;;;8.80;58.60;;;;;;4973879;28;20029;-55
2022/01/09 11:33:03;;;;;;;12.32;2.75;;;8.80;58.90;;;;;;4958569;28;20045;-54
2022/01/09 11:36:04;;;;;;;14.68;2.53;;;8.90;59.10;;;;;;4974741;28;20045;-55
2022/01/09 11:39:02;;;;;;;13.55;2.50;;;8.90;59.10;;;;;;4976930;28;20038;-55
2022/01/09 11:41:31;;;;;;;9.52;2.30;;;9.00;58.80;;;;;;4977225;28;20598;-50
2022/01/09 11:44:06;;;;;;;13.68;2.25;;;9.00;58.90;;;;;;4967525;28;20038;-56
2022/01/09 11:47:05;;;;;;;8.73;2.35;;;9.10;58.70;;;;;;4976082;28;20050;-54
2022/01/09 11:49:58;;;;;;;13.35;2.35;;;9.20;58.40;;;;;;4970671;28;20470;-55
2022/01/09 11:52:26;;;;;;;14.70;2.95;;;9.20;58.10;;;;;;4974550;28;20034;-55
2022/01/09 11:54:55;;;;;;;12.70;2.10;;;9.20;57.70;;;;;;4973096;28;20486;-55
2022/01/09 11:57:49;;;;;;;14.40;2.70;;;9.20;57.80;;;;;;4972594;28;20042;-53
2022/01/09 12:00:29;;;;;;;11.52;2.17;;;9.20;57.70;;;;;;4974277;28;20047;-55
2022/01/09 12:02:55;;;;;;;12.85;2.25;;;9.30;57.60;;;;;;4976759;28;20041;-54
2022/01/09 12:05:22;;;;;;;16.90;2.67;;;9.30;57.70;;;;;;4956207;28;20058;-55
2022/01/09 12:07:48;;;;;;;14.32;2.78;;;9.30;57.70;;;;;;4969204;28;20019;-56
2022/01/09 12:10:17;;;;;;;18.98;2.83;;;9.30;57.80;;;;;;4972792;28;20518;-57
2022/01/09 12:12:43;;;;;;;17.13;3.40;;;9.20;57.80;;;;;;4973199;28;20027;-54
2022/01/09 12:15:11;;;;;;;18.80;3.67;;;9.20;57.70;;;;;;4973140;28;20380;-55
2022/01/09 12:17:45;;;;;;;14.23;2.83;;;9.20;57.70;;;;;;4967832;28;20583;-55
2022/01/09 12:20:14;;;;;;;10.60;2.33;;;9.20;57.80;;;;;;4973492;28;20049;-57
2022/01/09 12:22:46;;;;;;;13.77;2.50;;;9.20;57.80;;;;;;4975387;28;20038;-57
2022/01/09 12:25:24;;;;;;;14.20;2.78;;;9.20;57.80;;;;;;4974993;28;20027;-57
2022/01/09 12:27:54;;;;;;;18.42;2.85;;;9.20;57.80;;;;;;4951265;28;20379;-58
2022/01/09 12:30:33;;;;;;;10.80;2.45;;;9.20;57.80;;;;;;4974480;28;20037;-55
2022/01/09 12:33:00;;;;;;;16.10;2.60;;;9.20;57.70;;;;;;4971250;28;20026;-55
2022/01/09 12:35:27;;;;;;;14.90;2.30;;;9.30;57.70;;;;;;4971960;28;20049;-54
2022/01/09 12:37:55;;;;;;;11.90;2.58;;;9.30;57.50;;;;;;4974414;28;20049;-56
2022/01/09 12:40:22;;;;;;;14.88;2.55;;;9.30;57.20;;;;;;4967611;28;20043;-55
2022/01/09 12:42:54;;;;;;;17.88;2.75;;;9.30;57.00;;;;;;4976406;28;20390;-58
2022/01/09 12:45:28;;;;;;;7.47;2.15;;;9.30;56.60;;;;;;4956735;28;20038;-53
2022/01/09 12:47:56;;;;;;;11.35;2.30;;;9.30;56.70;;;;;;4946868;28;20893;-53
2022/01/09 12:50:27;;;;;;;13.23;2.53;;;9.30;56.60;;;;;;4975426;28;20029;-55
2022/01/09 12:53:28;;;;;;;9.82;2.03;;;9.30;56.60;;;;;;4982129;28;20491;-55
2022/01/09 12:55:54;;;;;;;12.50;1.85;;;9.30;56.50;;;;;;4980485;28;20042;-54
2022/01/09 12:58:31;;;;;;;12.18;2.63;;;9.30;56.60;;;;;;4976128;28;20026;-54